createdAt,value
2023-03-21T00:00:43.942Z,973.86
2023-03-21T00:01:43.900Z,973.83
2023-03-21T00:02:44.079Z,973.80
2023-03-21T00:03:44.007Z,973.76
2023-03-21T00:04:51.349Z,973.77
2023-03-21T00:05:43.990Z,973.84
2023-03-21T00:06:43.859Z,973.80
2023-03-21T00:07:43.870Z,973.79
2023-03-21T00:08:43.831Z,973.77
2023-03-21T00:09:43.833Z,973.73
2023-03-21T00:10:44.221Z,973.82
2023-03-21T00:11:43.796Z,973.81
2023-03-21T00:12:43.818Z,973.78
2023-03-21T00:13:43.813Z,973.83
2023-03-21T00:14:43.774Z,973.76
2023-03-21T00:15:54.119Z,973.83
2023-03-21T00:16:44.749Z,973.77
2023-03-21T00:17:43.767Z,973.77
2023-03-21T00:18:43.725Z,973.73
2023-03-21T00:19:43.708Z,973.75
2023-03-21T00:20:43.713Z,973.73
2023-03-21T00:22:03.276Z,973.67
2023-03-21T00:22:45.743Z,973.76
2023-03-21T00:23:43.660Z,973.72
2023-03-21T00:24:43.641Z,973.71
2023-03-21T00:25:43.628Z,973.69
2023-03-21T00:26:43.612Z,973.66
2023-03-21T00:27:57.213Z,973.65
2023-03-21T00:28:45.616Z,973.64
2023-03-21T00:29:43.571Z,973.61
2023-03-21T00:30:43.566Z,973.64
2023-03-21T00:31:43.545Z,973.63
2023-03-21T00:33:44.573Z,973.59
2023-03-21T00:34:57.647Z,973.60
2023-03-21T00:35:58.297Z,973.65
2023-03-21T00:36:44.589Z,973.65
2023-03-21T00:37:43.516Z,973.59
2023-03-21T00:38:43.477Z,973.62
2023-03-21T00:39:43.507Z,973.56
2023-03-21T00:40:48.818Z,973.60
2023-03-21T00:41:44.492Z,973.51
2023-03-21T00:42:43.450Z,973.56
2023-03-21T00:43:43.435Z,973.56
2023-03-21T00:44:43.426Z,973.55
2023-03-21T00:45:43.425Z,973.54
2023-03-21T00:46:51.632Z,973.56
2023-03-21T00:47:44.497Z,973.52
2023-03-21T00:48:43.387Z,973.54
2023-03-21T00:49:43.376Z,973.54
2023-03-21T00:50:43.356Z,973.51
2023-03-21T00:51:43.335Z,973.52
2023-03-21T00:52:43.308Z,973.49
2023-03-21T00:53:43.294Z,973.46
2023-03-21T00:54:43.338Z,973.43
2023-03-21T00:55:43.281Z,973.47
2023-03-21T00:56:43.271Z,973.43
2023-03-21T00:57:45.344Z,973.43
2023-03-21T00:58:43.255Z,973.43
2023-03-21T00:59:43.290Z,973.40
2023-03-21T01:07:28.882Z,973.36
2023-03-21T01:07:56.784Z,973.38
2023-03-21T01:08:56.494Z,973.34
2023-03-21T01:09:56.482Z,973.41
2023-03-21T01:10:56.472Z,973.42
2023-03-21T01:11:56.458Z,973.37
2023-03-21T01:12:56.480Z,973.44
2023-03-21T01:14:07.327Z,973.38
2023-03-21T01:14:56.419Z,973.36
2023-03-21T01:15:56.435Z,973.39
2023-03-21T01:16:56.406Z,973.36
2023-03-21T01:17:56.395Z,973.34
2023-03-21T01:18:56.412Z,973.31
2023-03-21T01:19:56.356Z,973.31
2023-03-21T01:20:56.361Z,973.37
2023-03-21T01:21:56.326Z,973.37
2023-03-21T01:22:56.318Z,973.34
2023-03-21T01:23:56.302Z,973.38
2023-03-21T01:25:05.648Z,973.34
2023-03-21T01:25:56.282Z,973.37
2023-03-21T01:26:56.260Z,973.39
2023-03-21T01:27:56.249Z,973.31
2023-03-21T01:28:56.234Z,973.33
2023-03-21T01:29:56.258Z,973.31
2023-03-21T01:30:56.212Z,973.35
2023-03-21T01:31:56.238Z,973.33
2023-03-21T01:32:56.186Z,973.29
2023-03-21T01:33:56.182Z,973.34
2023-03-21T01:34:56.189Z,973.26
2023-03-21T01:36:10.002Z,973.26
2023-03-21T01:36:56.155Z,973.32
2023-03-21T01:37:56.125Z,973.30
2023-03-21T01:38:56.107Z,973.29
2023-03-21T01:39:56.097Z,973.28
2023-03-21T01:40:56.084Z,973.25
2023-03-21T01:41:56.111Z,973.25
2023-03-21T01:42:56.059Z,973.25
2023-03-21T01:43:56.053Z,973.18
2023-03-21T01:44:56.037Z,973.23
2023-03-21T01:45:57.211Z,973.26
2023-03-21T01:47:09.841Z,973.16
2023-03-21T01:47:58.161Z,973.24
2023-03-21T01:48:57.119Z,973.21
2023-03-21T01:49:57.134Z,973.22
2023-03-21T01:50:57.097Z,973.12
2023-03-21T01:52:01.067Z,973.18
2023-03-21T01:52:57.114Z,973.15
2023-03-21T01:53:57.068Z,973.15
2023-03-21T01:54:57.146Z,973.13
2023-03-21T01:55:57.042Z,973.13
2023-03-21T01:56:57.095Z,973.12
2023-03-21T01:58:06.485Z,973.16
2023-03-21T01:58:59.006Z,973.14
2023-03-21T01:59:57.013Z,973.08
2023-03-21T02:00:57.130Z,973.06
2023-03-21T02:01:56.996Z,973.11
2023-03-21T02:03:06.160Z,973.16
2023-03-21T02:03:57.970Z,973.09
2023-03-21T02:04:56.936Z,973.08
2023-03-21T02:05:56.918Z,973.10
2023-03-21T02:06:56.897Z,973.07
2023-03-21T02:07:56.936Z,973.09
2023-03-21T02:08:56.892Z,973.14
2023-03-21T02:09:56.897Z,973.10
2023-03-21T02:10:56.878Z,973.05
2023-03-21T02:11:56.853Z,973.00
2023-03-21T02:12:56.873Z,973.00
2023-03-21T02:14:06.177Z,972.99
2023-03-21T02:14:57.830Z,972.98
2023-03-21T02:15:56.812Z,973.04
2023-03-21T02:16:56.808Z,973.03
2023-03-21T02:17:56.813Z,973.00
2023-03-21T02:18:56.799Z,973.02
2023-03-21T02:19:56.771Z,972.99
2023-03-21T02:20:56.751Z,972.93
2023-03-21T02:21:56.753Z,972.94
2023-03-21T02:22:56.743Z,972.94
2023-03-21T02:23:56.741Z,972.87
2023-03-21T02:25:01.469Z,972.87
2023-03-21T02:25:57.702Z,972.81
2023-03-21T02:27:03.859Z,972.87
2023-03-21T02:27:57.672Z,972.79
2023-03-21T02:28:56.704Z,972.87
2023-03-21T02:29:56.662Z,972.79
2023-03-21T02:30:56.879Z,972.80
2023-03-21T02:32:00.892Z,972.79
2023-03-21T02:32:56.669Z,972.73
2023-03-21T02:33:56.663Z,972.77
2023-03-21T02:34:56.603Z,972.81
2023-03-21T02:36:00.594Z,972.77
2023-03-21T02:36:57.560Z,972.75
2023-03-21T02:38:00.514Z,972.75
2023-03-21T02:38:57.582Z,972.74
2023-03-21T02:39:56.550Z,972.75
2023-03-21T02:41:00.325Z,972.74
2023-03-21T02:41:56.511Z,972.81
2023-03-21T02:43:00.972Z,972.75
2023-03-21T02:43:56.512Z,972.79
2023-03-21T02:44:56.534Z,972.83
2023-03-21T02:45:56.513Z,972.77
2023-03-21T02:47:04.995Z,972.79
2023-03-21T02:47:57.487Z,972.79
2023-03-21T02:48:56.472Z,972.80
2023-03-21T02:49:56.873Z,972.83
2023-03-21T02:50:56.413Z,972.85
2023-03-21T02:51:58.123Z,972.81
2023-03-21T02:52:56.384Z,972.86
2023-03-21T02:54:24.613Z,972.85
2023-03-21T02:54:56.372Z,972.81
2023-03-21T02:55:56.378Z,972.83
2023-03-21T02:56:56.519Z,972.84
2023-03-21T02:57:56.673Z,972.85
2023-03-21T02:58:56.672Z,972.83
2023-03-21T03:00:02.323Z,972.85
2023-03-21T03:00:58.353Z,972.81
2023-03-21T03:01:56.284Z,972.82
2023-03-21T03:03:08.220Z,972.74
2023-03-21T03:03:56.310Z,972.82
2023-03-21T03:04:56.285Z,972.83
2023-03-21T03:05:56.285Z,972.81
2023-03-21T03:06:56.252Z,972.79
2023-03-21T03:07:56.236Z,972.83
2023-03-21T03:09:02.389Z,972.74
2023-03-21T03:09:56.229Z,972.71
2023-03-21T03:10:56.219Z,972.79
2023-03-21T03:11:56.208Z,972.75
2023-03-21T03:12:56.181Z,972.67
2023-03-21T03:13:56.159Z,972.68
2023-03-21T03:15:03.217Z,972.73
2023-03-21T03:15:56.150Z,972.74
2023-03-21T03:16:56.163Z,972.68
2023-03-21T03:17:56.106Z,972.66
2023-03-21T03:18:56.115Z,972.68
2023-03-21T03:19:57.143Z,972.67
2023-03-21T03:20:56.115Z,972.70
2023-03-21T03:21:56.116Z,972.68
2023-03-21T03:22:56.086Z,972.73
2023-03-21T03:23:56.062Z,972.72
2023-03-21T03:24:56.049Z,972.69
2023-03-21T03:25:56.050Z,972.69
2023-03-21T03:26:56.018Z,972.71
2023-03-21T03:27:56.063Z,972.69
2023-03-21T03:28:56.003Z,972.70
2023-03-21T03:29:55.977Z,972.65
2023-03-21T03:31:08.011Z,972.66
2023-03-21T03:31:57.009Z,972.64
2023-03-21T03:32:55.990Z,972.64
2023-03-21T03:33:55.944Z,972.66
2023-03-21T03:34:55.925Z,972.63
2023-03-21T03:36:04.848Z,972.62
2023-03-21T03:36:56.978Z,972.61
2023-03-21T03:37:55.896Z,972.53
2023-03-21T03:38:56.045Z,972.58
2023-03-21T03:39:55.865Z,972.60
2023-03-21T03:40:55.856Z,972.60
2023-03-21T03:42:10.190Z,972.56
2023-03-21T03:42:57.826Z,972.52
2023-03-21T03:43:55.987Z,972.54
2023-03-21T03:44:56.582Z,972.58
2023-03-21T03:45:55.793Z,972.54
2023-03-21T03:46:55.865Z,972.54
2023-03-21T03:47:57.472Z,972.55
2023-03-21T03:48:55.781Z,972.57
2023-03-21T03:49:55.762Z,972.52
2023-03-21T03:50:55.742Z,972.55
2023-03-21T03:51:55.715Z,972.47
2023-03-21T03:52:57.754Z,972.54
2023-03-21T03:53:56.345Z,972.54
2023-03-21T03:54:55.744Z,972.53
2023-03-21T03:55:55.669Z,972.59
2023-03-21T03:56:55.676Z,972.55
2023-03-21T03:57:55.666Z,972.48
2023-03-21T03:58:55.626Z,972.49
2023-03-21T03:59:55.653Z,972.50
2023-03-21T04:00:55.640Z,972.42
2023-03-21T04:01:55.638Z,972.52
2023-03-21T04:02:55.687Z,972.41
2023-03-21T04:04:10.419Z,972.41
2023-03-21T04:04:55.598Z,972.43
2023-03-21T04:05:55.731Z,972.45
2023-03-21T04:06:57.526Z,972.46
2023-03-21T04:07:55.558Z,972.45
2023-03-21T04:08:55.527Z,972.41
2023-03-21T04:09:55.520Z,972.44
2023-03-21T04:10:55.561Z,972.47
2023-03-21T04:11:55.506Z,972.43
2023-03-21T04:12:55.479Z,972.49
2023-03-21T04:13:55.486Z,972.50
2023-03-21T04:15:01.934Z,972.47
2023-03-21T04:15:55.624Z,972.45
2023-03-21T04:16:55.482Z,972.42
2023-03-21T04:17:55.448Z,972.46
2023-03-21T04:18:55.576Z,972.43
2023-03-21T04:20:05.379Z,972.42
2023-03-21T04:20:56.402Z,972.42
2023-03-21T04:21:55.420Z,972.46
2023-03-21T04:22:55.413Z,972.42
2023-03-21T04:23:55.376Z,972.39
2023-03-21T04:24:55.359Z,972.42
2023-03-21T04:25:56.974Z,972.43
2023-03-21T04:26:56.366Z,972.42
2023-03-21T04:27:55.317Z,972.37
2023-03-21T04:28:55.300Z,972.36
2023-03-21T04:29:55.289Z,972.41
2023-03-21T04:31:03.539Z,972.40
2023-03-21T04:31:55.398Z,972.42
2023-03-21T04:32:55.282Z,972.44
2023-03-21T04:33:55.252Z,972.45
2023-03-21T04:34:55.235Z,972.34
2023-03-21T04:35:55.229Z,972.38
2023-03-21T04:36:55.215Z,972.38
2023-03-21T04:37:55.248Z,972.38
2023-03-21T04:38:55.200Z,972.39
2023-03-21T04:39:55.194Z,972.39
2023-03-21T04:40:55.337Z,972.38
2023-03-21T04:41:55.161Z,972.36
2023-03-21T04:42:55.182Z,972.37
2023-03-21T04:43:55.157Z,972.36
2023-03-21T04:44:55.120Z,972.37
2023-03-21T04:45:55.142Z,972.35
2023-03-21T04:46:55.095Z,972.34
2023-03-21T04:47:55.132Z,972.30
2023-03-21T04:48:55.085Z,972.35
2023-03-21T04:49:55.078Z,972.34
2023-03-21T04:50:55.053Z,972.34
2023-03-21T04:51:55.041Z,972.31
2023-03-21T04:52:55.033Z,972.32
2023-03-21T04:53:55.058Z,972.36
2023-03-21T04:54:55.019Z,972.32
2023-03-21T04:55:55.658Z,972.34
2023-03-21T04:56:55.977Z,972.36
2023-03-21T04:57:54.980Z,972.38
2023-03-21T04:58:54.958Z,972.29
2023-03-21T04:59:54.971Z,972.28
2023-03-21T05:00:54.968Z,972.31
2023-03-21T05:01:54.980Z,972.29
2023-03-21T05:02:54.912Z,972.29
2023-03-21T05:03:54.922Z,972.30
2023-03-21T05:04:54.976Z,972.42
2023-03-21T05:05:54.872Z,972.36
2023-03-21T05:06:54.880Z,972.38
2023-03-21T05:07:54.864Z,972.34
2023-03-21T05:08:54.850Z,972.36
2023-03-21T05:09:54.855Z,972.30
2023-03-21T05:10:54.820Z,972.34
2023-03-21T05:11:54.805Z,972.30
2023-03-21T05:12:54.795Z,972.31
2023-03-21T05:13:54.840Z,972.28
2023-03-21T05:14:54.768Z,972.27
2023-03-21T05:15:54.819Z,972.27
2023-03-21T05:16:54.775Z,972.33
2023-03-21T05:17:54.757Z,972.31
2023-03-21T05:18:54.756Z,972.37
2023-03-21T05:19:54.739Z,972.37
2023-03-21T05:20:54.720Z,972.32
2023-03-21T05:21:54.689Z,972.39
2023-03-21T05:22:54.680Z,972.38
2023-03-21T05:23:54.690Z,972.45
2023-03-21T05:24:54.657Z,972.44
2023-03-21T05:25:54.638Z,972.39
2023-03-21T05:26:54.652Z,972.34
2023-03-21T05:27:54.617Z,972.38
2023-03-21T05:28:54.618Z,972.33
2023-03-21T05:29:54.622Z,972.37
2023-03-21T05:30:54.604Z,972.39
2023-03-21T05:31:54.608Z,972.45
2023-03-21T05:32:54.555Z,972.33
2023-03-21T05:33:54.537Z,972.33
2023-03-21T05:34:54.540Z,972.35
2023-03-21T05:35:54.535Z,972.35
2023-03-21T05:36:54.547Z,972.41
2023-03-21T05:37:54.505Z,972.43
2023-03-21T05:38:54.487Z,972.38
2023-03-21T05:39:54.485Z,972.40
2023-03-21T05:40:54.457Z,972.44
2023-03-21T05:41:54.466Z,972.44
2023-03-21T05:42:54.460Z,972.36
2023-03-21T05:43:54.628Z,972.39
2023-03-21T05:44:54.434Z,972.41
2023-03-21T05:45:54.440Z,972.42
2023-03-21T05:46:54.394Z,972.41
2023-03-21T05:47:54.519Z,972.46
2023-03-21T05:48:54.360Z,972.47
2023-03-21T05:49:54.369Z,972.41
2023-03-21T05:50:54.353Z,972.37
2023-03-21T05:51:54.320Z,972.45
2023-03-21T05:52:55.270Z,972.42
2023-03-21T05:53:54.352Z,972.40
2023-03-21T05:54:54.323Z,972.39
2023-03-21T05:55:54.308Z,972.42
2023-03-21T05:56:54.285Z,972.36
2023-03-21T05:57:54.296Z,972.39
2023-03-21T05:58:55.277Z,972.35
2023-03-21T05:59:54.240Z,972.36
2023-03-21T06:00:54.308Z,972.37
2023-03-21T06:01:54.228Z,972.39
2023-03-21T06:02:54.300Z,972.42
2023-03-21T06:03:54.259Z,972.41
2023-03-21T06:04:54.177Z,972.41
2023-03-21T06:05:54.191Z,972.41
2023-03-21T06:06:54.210Z,972.37
2023-03-21T06:07:54.178Z,972.40
2023-03-21T06:08:54.187Z,972.34
2023-03-21T06:09:54.172Z,972.31
2023-03-21T06:10:54.142Z,972.32
2023-03-21T06:11:54.110Z,972.37
2023-03-21T06:12:54.128Z,972.34
2023-03-21T06:13:54.097Z,972.38
2023-03-21T06:14:54.077Z,972.34
2023-03-21T06:15:54.163Z,972.41
2023-03-21T06:16:54.052Z,972.41
2023-03-21T06:17:54.046Z,972.36
2023-03-21T06:18:54.052Z,972.40
2023-03-21T06:19:54.019Z,972.39
2023-03-21T06:20:53.992Z,972.33
2023-03-21T06:21:53.998Z,972.34
2023-03-21T06:22:53.979Z,972.30
2023-03-21T06:23:54.001Z,972.33
2023-03-21T06:24:53.972Z,972.34
2023-03-21T06:25:53.953Z,972.36
2023-03-21T06:26:53.926Z,972.37
2023-03-21T06:27:53.941Z,972.37
2023-03-21T06:28:53.911Z,972.42
2023-03-21T06:29:53.932Z,972.40
2023-03-21T06:30:53.918Z,972.42
2023-03-21T06:31:53.870Z,972.37
2023-03-21T06:32:53.858Z,972.46
2023-03-21T06:33:53.864Z,972.42
2023-03-21T06:34:53.882Z,972.40
2023-03-21T06:35:53.871Z,972.37
2023-03-21T06:36:53.829Z,972.39
2023-03-21T06:37:53.807Z,972.40
2023-03-21T06:38:54.333Z,972.43
2023-03-21T06:39:55.457Z,972.36
2023-03-21T06:40:53.781Z,972.43
2023-03-21T06:41:53.784Z,972.50
2023-03-21T06:42:53.768Z,972.46
2023-03-21T06:43:53.728Z,972.47
2023-03-21T06:44:53.746Z,972.49
2023-03-21T06:45:53.750Z,972.54
2023-03-21T06:46:53.781Z,972.55
2023-03-21T06:47:54.173Z,972.51
2023-03-21T06:48:53.677Z,972.55
2023-03-21T06:49:53.687Z,972.58
2023-03-21T06:50:53.692Z,972.51
2023-03-21T06:51:53.660Z,972.51
2023-03-21T06:52:53.633Z,972.54
2023-03-21T06:53:53.620Z,972.55
2023-03-21T06:54:53.610Z,972.59
2023-03-21T06:55:53.588Z,972.59
2023-03-21T06:56:53.619Z,972.58
2023-03-21T06:57:53.590Z,972.58
2023-03-21T06:58:53.575Z,972.57
2023-03-21T06:59:53.556Z,972.61
2023-03-21T07:00:53.588Z,972.51
2023-03-21T07:01:53.580Z,972.57
2023-03-21T07:02:53.592Z,972.55
2023-03-21T07:03:53.508Z,972.60
2023-03-21T07:04:53.498Z,972.60
2023-03-21T07:05:53.493Z,972.60
2023-03-21T07:06:53.483Z,972.59
2023-03-21T07:07:53.472Z,972.61
2023-03-21T07:08:53.465Z,972.60
2023-03-21T07:09:53.448Z,972.63
2023-03-21T07:10:53.449Z,972.60
2023-03-21T07:11:53.457Z,972.60
2023-03-21T07:12:53.452Z,972.65
2023-03-21T07:13:53.415Z,972.60
2023-03-21T07:14:53.381Z,972.63
2023-03-21T07:15:53.381Z,972.56
2023-03-21T07:16:53.373Z,972.55
2023-03-21T07:17:53.374Z,972.61
2023-03-21T07:18:53.351Z,972.55
2023-03-21T07:19:53.343Z,972.59
2023-03-21T07:20:53.315Z,972.54
2023-03-21T07:21:53.310Z,972.56
2023-03-21T07:22:53.300Z,972.57
2023-03-21T07:23:53.300Z,972.57
2023-03-21T07:25:04.030Z,972.54
2023-03-21T07:25:53.289Z,972.51
2023-03-21T07:26:53.255Z,972.48
2023-03-21T07:27:53.240Z,972.49
2023-03-21T07:28:53.261Z,972.52
2023-03-21T07:29:53.202Z,972.54
2023-03-21T07:30:53.215Z,972.48
2023-03-21T07:31:53.307Z,972.49
2023-03-21T07:32:53.181Z,972.49
2023-03-21T07:33:53.177Z,972.48
2023-03-21T07:34:53.165Z,972.46
2023-03-21T07:35:53.191Z,972.45
2023-03-21T07:36:53.160Z,972.42
2023-03-21T07:37:53.130Z,972.44
